sensor_id;sensor_type;location;lat;lon;timestamp;P1;durP1;ratioP1;P2;durP2;ratioP2
15633;SDS011;14654;48.898;8.308;2022-09-03T00:01:56;2.73;;;2.53;;
15633;SDS011;14654;48.898;8.308;2022-09-03T00:04:29;2.63;;;2.43;;
15633;SDS011;14654;48.898;8.308;2022-09-03T00:07:05;2.77;;;2.57;;
15633;SDS011;14654;48.898;8.308;2022-09-03T00:09:40;2.97;;;2.77;;
15633;SDS011;14654;48.898;8.308;2022-09-03T00:12:21;2.50;;;2.30;;
15633;SDS011;14654;48.898;8.308;2022-09-03T00:14:51;3.23;;;2.93;;
15633;SDS011;14654;48.898;8.308;2022-09-03T00:17:26;2.73;;;2.53;;
15633;SDS011;14654;48.898;8.308;2022-09-03T00:22:28;3.00;;;2.80;;
15633;SDS011;14654;48.898;8.308;2022-09-03T00:24:58;3.33;;;2.70;;
15633;SDS011;14654;48.898;8.308;2022-09-03T00:27:27;3.10;;;2.80;;
15633;SDS011;14654;48.898;8.308;2022-09-03T00:30:00;3.10;;;2.90;;
15633;SDS011;14654;48.898;8.308;2022-09-03T00:35:36;2.80;;;2.60;;
15633;SDS011;14654;48.898;8.308;2022-09-03T00:38:23;3.30;;;3.10;;
15633;SDS011;14654;48.898;8.308;2022-09-03T00:41:01;2.83;;;2.63;;
15633;SDS011;14654;48.898;8.308;2022-09-03T00:43:55;3.07;;;2.87;;
15633;SDS011;14654;48.898;8.308;2022-09-03T00:49:08;2.83;;;2.67;;
15633;SDS011;14654;48.898;8.308;2022-09-03T00:54:54;2.80;;;2.50;;
15633;SDS011;14654;48.898;8.308;2022-09-03T01:00:11;3.10;;;2.90;;
15633;SDS011;14654;48.898;8.308;2022-09-03T01:03:00;3.40;;;3.10;;
15633;SDS011;14654;48.898;8.308;2022-09-03T01:11:02;3.13;;;2.80;;
15633;SDS011;14654;48.898;8.308;2022-09-03T01:25:05;3.70;;;3.23;;
15633;SDS011;14654;48.898;8.308;2022-09-03T01:30:23;4.20;;;3.30;;
15633;SDS011;14654;48.898;8.308;2022-09-03T01:39:00;2.93;;;2.73;;
15633;SDS011;14654;48.898;8.308;2022-09-03T01:49:54;3.40;;;3.13;;
15633;SDS011;14654;48.898;8.308;2022-09-03T01:52:45;3.20;;;3.00;;
15633;SDS011;14654;48.898;8.308;2022-09-03T01:55:47;3.70;;;3.10;;
15633;SDS011;14654;48.898;8.308;2022-09-03T02:01:32;2.90;;;2.70;;
15633;SDS011;14654;48.898;8.308;2022-09-03T02:04:01;2.97;;;2.77;;
15633;SDS011;14654;48.898;8.308;2022-09-03T02:06:37;3.10;;;2.80;;
15633;SDS011;14654;48.898;8.308;2022-09-03T02:09:04;3.40;;;3.10;;
15633;SDS011;14654;48.898;8.308;2022-09-03T02:11:29;3.73;;;3.43;;
15633;SDS011;14654;48.898;8.308;2022-09-03T02:13:54;3.40;;;3.20;;
15633;SDS011;14654;48.898;8.308;2022-09-03T02:16:24;3.60;;;3.30;;
15633;SDS011;14654;48.898;8.308;2022-09-03T02:18:58;3.33;;;3.03;;
15633;SDS011;14654;48.898;8.308;2022-09-03T02:21:32;3.20;;;3.00;;
15633;SDS011;14654;48.898;8.308;2022-09-03T02:24:02;3.27;;;3.07;;
15633;SDS011;14654;48.898;8.308;2022-09-03T02:26:28;3.07;;;2.87;;
15633;SDS011;14654;48.898;8.308;2022-09-03T02:28:54;2.93;;;2.73;;
15633;SDS011;14654;48.898;8.308;2022-09-03T02:31:20;3.40;;;3.20;;
15633;SDS011;14654;48.898;8.308;2022-09-03T02:33:46;3.03;;;2.83;;
15633;SDS011;14654;48.898;8.308;2022-09-03T02:36:14;3.83;;;3.20;;
15633;SDS011;14654;48.898;8.308;2022-09-03T02:38:42;3.23;;;2.93;;
15633;SDS011;14654;48.898;8.308;2022-09-03T02:41:09;3.10;;;2.90;;
15633;SDS011;14654;48.898;8.308;2022-09-03T02:43:48;3.93;;;3.57;;
15633;SDS011;14654;48.898;8.308;2022-09-03T02:46:20;3.50;;;3.20;;
15633;SDS011;14654;48.898;8.308;2022-09-03T02:48:48;3.50;;;3.30;;
15633;SDS011;14654;48.898;8.308;2022-09-03T02:51:13;3.13;;;2.93;;
15633;SDS011;14654;48.898;8.308;2022-09-03T02:53:38;3.37;;;3.00;;
15633;SDS011;14654;48.898;8.308;2022-09-03T02:56:04;3.40;;;3.10;;
15633;SDS011;14654;48.898;8.308;2022-09-03T02:58:30;3.20;;;3.00;;
15633;SDS011;14654;48.898;8.308;2022-09-03T03:00:56;2.93;;;2.73;;
15633;SDS011;14654;48.898;8.308;2022-09-03T03:03:21;3.00;;;2.80;;
15633;SDS011;14654;48.898;8.308;2022-09-03T03:05:48;3.30;;;3.10;;
15633;SDS011;14654;48.898;8.308;2022-09-03T03:08:15;3.47;;;3.17;;
15633;SDS011;14654;48.898;8.308;2022-09-03T03:10:43;3.93;;;3.63;;
15633;SDS011;14654;48.898;8.308;2022-09-03T03:13:09;3.60;;;3.30;;
15633;SDS011;14654;48.898;8.308;2022-09-03T03:15:35;3.63;;;3.33;;
15633;SDS011;14654;48.898;8.308;2022-09-03T03:18:00;3.80;;;3.60;;
15633;SDS011;14654;48.898;8.308;2022-09-03T03:20:25;3.90;;;3.60;;
15633;SDS011;14654;48.898;8.308;2022-09-03T03:22:51;3.37;;;3.17;;
15633;SDS011;14654;48.898;8.308;2022-09-03T03:25:16;3.63;;;3.33;;
15633;SDS011;14654;48.898;8.308;2022-09-03T03:27:41;3.63;;;3.43;;
15633;SDS011;14654;48.898;8.308;2022-09-03T03:30:08;3.80;;;3.50;;
15633;SDS011;14654;48.898;8.308;2022-09-03T03:32:35;3.53;;;3.33;;
15633;SDS011;14654;48.898;8.308;2022-09-03T03:35:01;2.93;;;2.70;;
15633;SDS011;14654;48.898;8.308;2022-09-03T03:37:27;3.70;;;3.40;;
15633;SDS011;14654;48.898;8.308;2022-09-03T03:39:52;5.03;;;3.83;;
15633;SDS011;14654;48.898;8.308;2022-09-03T03:42:18;3.60;;;3.37;;
15633;SDS011;14654;48.898;8.308;2022-09-03T03:44:43;3.30;;;3.00;;
15633;SDS011;14654;48.898;8.308;2022-09-03T03:47:09;3.70;;;3.20;;
15633;SDS011;14654;48.898;8.308;2022-09-03T03:49:34;3.77;;;3.47;;
15633;SDS011;14654;48.898;8.308;2022-09-03T03:51:59;3.20;;;3.00;;
15633;SDS011;14654;48.898;8.308;2022-09-03T03:54:27;3.73;;;3.43;;
15633;SDS011;14654;48.898;8.308;2022-09-03T03:56:52;3.23;;;2.93;;
15633;SDS011;14654;48.898;8.308;2022-09-03T03:59:17;3.30;;;3.00;;
15633;SDS011;14654;48.898;8.308;2022-09-03T04:01:42;3.40;;;3.10;;
15633;SDS011;14654;48.898;8.308;2022-09-03T04:04:08;3.47;;;3.23;;
15633;SDS011;14654;48.898;8.308;2022-09-03T04:06:33;3.50;;;3.30;;
15633;SDS011;14654;48.898;8.308;2022-09-03T04:08:58;3.63;;;3.33;;
15633;SDS011;14654;48.898;8.308;2022-09-03T04:11:24;3.77;;;3.47;;
15633;SDS011;14654;48.898;8.308;2022-09-03T04:13:50;3.63;;;3.43;;
15633;SDS011;14654;48.898;8.308;2022-09-03T04:16:17;3.50;;;3.30;;
15633;SDS011;14654;48.898;8.308;2022-09-03T04:18:44;3.43;;;3.13;;
15633;SDS011;14654;48.898;8.308;2022-09-03T04:21:11;5.73;;;3.70;;
15633;SDS011;14654;48.898;8.308;2022-09-03T04:23:41;3.53;;;3.20;;
15633;SDS011;14654;48.898;8.308;2022-09-03T04:26:09;3.17;;;2.97;;
15633;SDS011;14654;48.898;8.308;2022-09-03T04:28:36;3.57;;;3.37;;
15633;SDS011;14654;48.898;8.308;2022-09-03T04:31:06;4.00;;;3.70;;
15633;SDS011;14654;48.898;8.308;2022-09-03T04:33:33;3.50;;;3.20;;
15633;SDS011;14654;48.898;8.308;2022-09-03T04:36:06;3.30;;;3.10;;
15633;SDS011;14654;48.898;8.308;2022-09-03T04:38:37;3.87;;;3.57;;
15633;SDS011;14654;48.898;8.308;2022-09-03T04:41:05;3.80;;;3.50;;
15633;SDS011;14654;48.898;8.308;2022-09-03T04:43:32;3.87;;;3.67;;
15633;SDS011;14654;48.898;8.308;2022-09-03T04:45:58;3.50;;;3.30;;
15633;SDS011;14654;48.898;8.308;2022-09-03T04:48:25;3.87;;;3.47;;
15633;SDS011;14654;48.898;8.308;2022-09-03T04:50:54;3.77;;;3.57;;
15633;SDS011;14654;48.898;8.308;2022-09-03T04:53:25;4.07;;;3.70;;
15633;SDS011;14654;48.898;8.308;2022-09-03T04:55:50;4.03;;;3.73;;
15633;SDS011;14654;48.898;8.308;2022-09-03T04:58:15;4.03;;;3.70;;
15633;SDS011;14654;48.898;8.308;2022-09-03T05:00:41;3.03;;;2.83;;
15633;SDS011;14654;48.898;8.308;2022-09-03T05:03:06;3.63;;;3.40;;
15633;SDS011;14654;48.898;8.308;2022-09-03T05:05:31;3.80;;;3.50;;
15633;SDS011;14654;48.898;8.308;2022-09-03T05:08:00;3.53;;;3.23;;
15633;SDS011;14654;48.898;8.308;2022-09-03T05:10:26;3.27;;;3.03;;
15633;SDS011;14654;48.898;8.308;2022-09-03T05:13:04;3.70;;;3.40;;
15633;SDS011;14654;48.898;8.308;2022-09-03T05:15:30;3.40;;;3.20;;
15633;SDS011;14654;48.898;8.308;2022-09-03T05:18:00;3.17;;;2.97;;
15633;SDS011;14654;48.898;8.308;2022-09-03T05:20:27;3.27;;;3.07;;
15633;SDS011;14654;48.898;8.308;2022-09-03T05:22:55;3.47;;;3.17;;
15633;SDS011;14654;48.898;8.308;2022-09-03T05:25:21;3.23;;;3.03;;
15633;SDS011;14654;48.898;8.308;2022-09-03T05:27:47;3.30;;;3.10;;
15633;SDS011;14654;48.898;8.308;2022-09-03T05:30:12;3.60;;;3.27;;
15633;SDS011;14654;48.898;8.308;2022-09-03T05:32:38;3.47;;;3.20;;
15633;SDS011;14654;48.898;8.308;2022-09-03T05:35:04;4.50;;;2.87;;
15633;SDS011;14654;48.898;8.308;2022-09-03T05:37:30;3.57;;;3.23;;
15633;SDS011;14654;48.898;8.308;2022-09-03T05:39:55;3.07;;;2.87;;
15633;SDS011;14654;48.898;8.308;2022-09-03T05:42:21;3.27;;;2.90;;
15633;SDS011;14654;48.898;8.308;2022-09-03T05:44:46;2.87;;;2.63;;
15633;SDS011;14654;48.898;8.308;2022-09-03T05:47:13;3.07;;;2.87;;
15633;SDS011;14654;48.898;8.308;2022-09-03T05:49:38;3.33;;;3.03;;
15633;SDS011;14654;48.898;8.308;2022-09-03T05:52:04;3.40;;;3.10;;
15633;SDS011;14654;48.898;8.308;2022-09-03T05:54:29;3.40;;;3.20;;
15633;SDS011;14654;48.898;8.308;2022-09-03T05:56:54;3.07;;;2.87;;
15633;SDS011;14654;48.898;8.308;2022-09-03T05:59:20;3.00;;;2.70;;
15633;SDS011;14654;48.898;8.308;2022-09-03T06:01:45;3.67;;;3.37;;
15633;SDS011;14654;48.898;8.308;2022-09-03T06:04:13;2.90;;;2.70;;
15633;SDS011;14654;48.898;8.308;2022-09-03T06:06:41;3.00;;;2.80;;
15633;SDS011;14654;48.898;8.308;2022-09-03T06:09:09;2.80;;;2.60;;
15633;SDS011;14654;48.898;8.308;2022-09-03T06:11:37;3.30;;;3.00;;
15633;SDS011;14654;48.898;8.308;2022-09-03T06:14:05;2.93;;;2.73;;
15633;SDS011;14654;48.898;8.308;2022-09-03T06:16:33;3.77;;;3.17;;
15633;SDS011;14654;48.898;8.308;2022-09-03T06:19:03;3.10;;;2.80;;
15633;SDS011;14654;48.898;8.308;2022-09-03T06:21:33;2.50;;;2.30;;
15633;SDS011;14654;48.898;8.308;2022-09-03T06:24:00;3.10;;;2.70;;
15633;SDS011;14654;48.898;8.308;2022-09-03T06:26:27;3.10;;;2.90;;
15633;SDS011;14654;48.898;8.308;2022-09-03T06:28:52;3.40;;;3.10;;
15633;SDS011;14654;48.898;8.308;2022-09-03T06:31:20;3.20;;;2.90;;
15633;SDS011;14654;48.898;8.308;2022-09-03T06:33:46;3.57;;;3.27;;
15633;SDS011;14654;48.898;8.308;2022-09-03T06:36:13;3.37;;;3.07;;
15633;SDS011;14654;48.898;8.308;2022-09-03T06:38:41;3.00;;;2.80;;
15633;SDS011;14654;48.898;8.308;2022-09-03T06:41:08;3.20;;;2.90;;
15633;SDS011;14654;48.898;8.308;2022-09-03T06:43:35;3.00;;;2.80;;
15633;SDS011;14654;48.898;8.308;2022-09-03T06:46:03;3.37;;;3.17;;
15633;SDS011;14654;48.898;8.308;2022-09-03T06:48:39;3.60;;;3.03;;
15633;SDS011;14654;48.898;8.308;2022-09-03T06:51:06;3.70;;;3.30;;
15633;SDS011;14654;48.898;8.308;2022-09-03T06:53:42;3.10;;;2.90;;
15633;SDS011;14654;48.898;8.308;2022-09-03T06:56:10;3.43;;;3.13;;
15633;SDS011;14654;48.898;8.308;2022-09-03T06:58:38;3.23;;;3.03;;
15633;SDS011;14654;48.898;8.308;2022-09-03T07:01:14;3.53;;;3.30;;
15633;SDS011;14654;48.898;8.308;2022-09-03T07:03:44;3.57;;;3.37;;
15633;SDS011;14654;48.898;8.308;2022-09-03T07:06:12;3.47;;;3.23;;
15633;SDS011;14654;48.898;8.308;2022-09-03T07:08:40;3.10;;;2.90;;
15633;SDS011;14654;48.898;8.308;2022-09-03T07:11:08;3.73;;;3.43;;
15633;SDS011;14654;48.898;8.308;2022-09-03T07:13:35;3.67;;;3.37;;
15633;SDS011;14654;48.898;8.308;2022-09-03T07:16:10;4.40;;;4.00;;
15633;SDS011;14654;48.898;8.308;2022-09-03T07:18:39;3.80;;;3.50;;
15633;SDS011;14654;48.898;8.308;2022-09-03T07:21:09;3.63;;;3.33;;
15633;SDS011;14654;48.898;8.308;2022-09-03T07:23:36;3.60;;;3.30;;
15633;SDS011;14654;48.898;8.308;2022-09-03T07:26:04;3.83;;;3.53;;
15633;SDS011;14654;48.898;8.308;2022-09-03T07:28:31;3.83;;;3.53;;
15633;SDS011;14654;48.898;8.308;2022-09-03T07:31:01;3.67;;;3.37;;
15633;SDS011;14654;48.898;8.308;2022-09-03T07:33:29;4.17;;;3.73;;
15633;SDS011;14654;48.898;8.308;2022-09-03T07:35:55;6.97;;;4.10;;
15633;SDS011;14654;48.898;8.308;2022-09-03T07:38:20;4.43;;;4.07;;
15633;SDS011;14654;48.898;8.308;2022-09-03T07:40:47;5.53;;;3.97;;
15633;SDS011;14654;48.898;8.308;2022-09-03T07:43:12;4.30;;;4.00;;
15633;SDS011;14654;48.898;8.308;2022-09-03T07:45:38;5.63;;;5.10;;
15633;SDS011;14654;48.898;8.308;2022-09-03T07:48:03;5.17;;;4.70;;
15633;SDS011;14654;48.898;8.308;2022-09-03T07:50:29;5.47;;;5.07;;
15633;SDS011;14654;48.898;8.308;2022-09-03T07:53:01;5.57;;;5.10;;
15633;SDS011;14654;48.898;8.308;2022-09-03T07:55:27;5.33;;;4.90;;
15633;SDS011;14654;48.898;8.308;2022-09-03T07:57:56;4.90;;;4.60;;
15633;SDS011;14654;48.898;8.308;2022-09-03T08:00:23;5.47;;;5.00;;
15633;SDS011;14654;48.898;8.308;2022-09-03T08:02:50;5.33;;;4.83;;
15633;SDS011;14654;48.898;8.308;2022-09-03T08:05:16;4.90;;;4.50;;
15633;SDS011;14654;48.898;8.308;2022-09-03T08:07:44;5.10;;;4.70;;
15633;SDS011;14654;48.898;8.308;2022-09-03T08:10:09;5.10;;;4.67;;
15633;SDS011;14654;48.898;8.308;2022-09-03T08:12:35;4.50;;;4.10;;
15633;SDS011;14654;48.898;8.308;2022-09-03T08:15:00;4.10;;;3.80;;
15633;SDS011;14654;48.898;8.308;2022-09-03T08:17:26;3.77;;;3.43;;
15633;SDS011;14654;48.898;8.308;2022-09-03T08:19:52;3.60;;;3.30;;
15633;SDS011;14654;48.898;8.308;2022-09-03T08:22:17;4.00;;;3.70;;
15633;SDS011;14654;48.898;8.308;2022-09-03T08:24:42;3.60;;;3.40;;
15633;SDS011;14654;48.898;8.308;2022-09-03T08:27:09;3.90;;;3.60;;
15633;SDS011;14654;48.898;8.308;2022-09-03T08:29:34;3.70;;;3.50;;
15633;SDS011;14654;48.898;8.308;2022-09-03T08:32:00;4.17;;;3.87;;
15633;SDS011;14654;48.898;8.308;2022-09-03T08:34:27;3.80;;;3.50;;
15633;SDS011;14654;48.898;8.308;2022-09-03T08:36:52;3.43;;;3.23;;
15633;SDS011;14654;48.898;8.308;2022-09-03T08:39:18;3.60;;;3.30;;
15633;SDS011;14654;48.898;8.308;2022-09-03T08:54:47;3.10;;;2.90;;
15633;SDS011;14654;48.898;8.308;2022-09-03T08:57:15;2.90;;;2.70;;
15633;SDS011;14654;48.898;8.308;2022-09-03T08:59:43;2.97;;;2.77;;
15633;SDS011;14654;48.898;8.308;2022-09-03T09:02:14;3.00;;;2.80;;
15633;SDS011;14654;48.898;8.308;2022-09-03T09:07:29;2.33;;;2.23;;
15633;SDS011;14654;48.898;8.308;2022-09-03T09:15:04;2.50;;;2.30;;
15633;SDS011;14654;48.898;8.308;2022-09-03T09:17:46;2.50;;;2.40;;
15633;SDS011;14654;48.898;8.308;2022-09-03T09:22:50;2.20;;;2.10;;
15633;SDS011;14654;48.898;8.308;2022-09-03T09:25:21;2.73;;;2.53;;
15633;SDS011;14654;48.898;8.308;2022-09-03T09:30:29;2.60;;;2.40;;
15633;SDS011;14654;48.898;8.308;2022-09-03T09:32:56;2.87;;;2.67;;
15633;SDS011;14654;48.898;8.308;2022-09-03T09:35:22;2.73;;;2.53;;
15633;SDS011;14654;48.898;8.308;2022-09-03T09:40:28;2.10;;;2.00;;
15633;SDS011;14654;48.898;8.308;2022-09-03T09:45:28;2.37;;;2.17;;
15633;SDS011;14654;48.898;8.308;2022-09-03T09:47:54;2.40;;;2.30;;
15633;SDS011;14654;48.898;8.308;2022-09-03T09:50:20;2.50;;;2.30;;
15633;SDS011;14654;48.898;8.308;2022-09-03T09:52:46;2.67;;;2.47;;
15633;SDS011;14654;48.898;8.308;2022-09-03T09:55:14;2.40;;;2.20;;
15633;SDS011;14654;48.898;8.308;2022-09-03T09:57:42;2.53;;;2.33;;
15633;SDS011;14654;48.898;8.308;2022-09-03T10:02:37;2.67;;;2.47;;
15633;SDS011;14654;48.898;8.308;2022-09-03T10:05:13;2.90;;;2.70;;
15633;SDS011;14654;48.898;8.308;2022-09-03T10:07:53;2.93;;;2.73;;
15633;SDS011;14654;48.898;8.308;2022-09-03T10:10:23;2.90;;;2.70;;
15633;SDS011;14654;48.898;8.308;2022-09-03T10:13:00;2.80;;;2.60;;
15633;SDS011;14654;48.898;8.308;2022-09-03T10:15:39;2.97;;;2.77;;
15633;SDS011;14654;48.898;8.308;2022-09-03T10:18:18;2.90;;;2.70;;
15633;SDS011;14654;48.898;8.308;2022-09-03T10:23:29;2.90;;;2.70;;
15633;SDS011;14654;48.898;8.308;2022-09-03T10:26:09;3.17;;;2.97;;
15633;SDS011;14654;48.898;8.308;2022-09-03T10:28:38;2.53;;;2.43;;
15633;SDS011;14654;48.898;8.308;2022-09-03T10:42:40;2.73;;;2.53;;
15633;SDS011;14654;48.898;8.308;2022-09-03T10:45:17;2.30;;;2.20;;
15633;SDS011;14654;48.898;8.308;2022-09-03T10:50:26;2.53;;;2.40;;
15633;SDS011;14654;48.898;8.308;2022-09-03T11:04:35;3.20;;;3.00;;
15633;SDS011;14654;48.898;8.308;2022-09-03T11:07:06;2.80;;;2.60;;
15633;SDS011;14654;48.898;8.308;2022-09-03T11:09:37;3.10;;;2.80;;
15633;SDS011;14654;48.898;8.308;2022-09-03T11:14:49;3.07;;;2.83;;
15633;SDS011;14654;48.898;8.308;2022-09-03T11:17:22;2.60;;;2.40;;
15633;SDS011;14654;48.898;8.308;2022-09-03T11:19:57;2.80;;;2.60;;
15633;SDS011;14654;48.898;8.308;2022-09-03T11:22:29;2.50;;;2.30;;
15633;SDS011;14654;48.898;8.308;2022-09-03T11:24:57;2.60;;;2.40;;
15633;SDS011;14654;48.898;8.308;2022-09-03T11:35:12;2.97;;;2.77;;
15633;SDS011;14654;48.898;8.308;2022-09-03T11:37:47;2.43;;;2.23;;
15633;SDS011;14654;48.898;8.308;2022-09-03T11:40:17;2.40;;;2.20;;
15633;SDS011;14654;48.898;8.308;2022-09-03T11:42:44;2.07;;;1.97;;
15633;SDS011;14654;48.898;8.308;2022-09-03T11:52:41;2.40;;;2.30;;
15633;SDS011;14654;48.898;8.308;2022-09-03T11:55:06;2.33;;;2.20;;
15633;SDS011;14654;48.898;8.308;2022-09-03T11:57:32;2.13;;;2.03;;
15633;SDS011;14654;48.898;8.308;2022-09-03T12:00:07;2.43;;;2.23;;
15633;SDS011;14654;48.898;8.308;2022-09-03T12:02:34;2.30;;;2.20;;
15633;SDS011;14654;48.898;8.308;2022-09-03T12:05:10;2.60;;;2.40;;
15633;SDS011;14654;48.898;8.308;2022-09-03T12:08:27;2.43;;;2.33;;
15633;SDS011;14654;48.898;8.308;2022-09-03T12:13:25;2.20;;;2.10;;
15633;SDS011;14654;48.898;8.308;2022-09-03T12:18:39;2.50;;;2.23;;
15633;SDS011;14654;48.898;8.308;2022-09-03T12:21:06;2.13;;;1.93;;
15633;SDS011;14654;48.898;8.308;2022-09-03T12:26:07;2.20;;;2.10;;
15633;SDS011;14654;48.898;8.308;2022-09-03T12:28:39;2.40;;;2.23;;
15633;SDS011;14654;48.898;8.308;2022-09-03T12:31:09;2.17;;;2.00;;
15633;SDS011;14654;48.898;8.308;2022-09-03T12:33:46;2.70;;;2.50;;
15633;SDS011;14654;48.898;8.308;2022-09-03T12:36:12;2.67;;;2.47;;
15633;SDS011;14654;48.898;8.308;2022-09-03T12:38:38;2.70;;;2.50;;
15633;SDS011;14654;48.898;8.308;2022-09-03T12:41:03;2.60;;;2.43;;
15633;SDS011;14654;48.898;8.308;2022-09-03T12:43:28;2.90;;;2.70;;
15633;SDS011;14654;48.898;8.308;2022-09-03T12:45:54;3.20;;;2.90;;
15633;SDS011;14654;48.898;8.308;2022-09-03T12:48:20;3.07;;;2.87;;
15633;SDS011;14654;48.898;8.308;2022-09-03T12:50:47;3.17;;;2.93;;
15633;SDS011;14654;48.898;8.308;2022-09-03T12:53:20;3.37;;;3.10;;
15633;SDS011;14654;48.898;8.308;2022-09-03T12:55:52;2.30;;;2.20;;
15633;SDS011;14654;48.898;8.308;2022-09-03T12:58:24;2.07;;;1.87;;
15633;SDS011;14654;48.898;8.308;2022-09-03T13:00:51;1.97;;;1.67;;
15633;SDS011;14654;48.898;8.308;2022-09-03T13:06:06;1.40;;;1.30;;
15633;SDS011;14654;48.898;8.308;2022-09-03T13:08:40;1.50;;;1.40;;
15633;SDS011;14654;48.898;8.308;2022-09-03T13:11:13;1.30;;;1.20;;
15633;SDS011;14654;48.898;8.308;2022-09-03T13:13:47;1.17;;;1.10;;
15633;SDS011;14654;48.898;8.308;2022-09-03T13:19:00;1.17;;;1.00;;
15633;SDS011;14654;48.898;8.308;2022-09-03T13:29:19;0.80;;;0.80;;
15633;SDS011;14654;48.898;8.308;2022-09-03T13:32:22;0.50;;;0.50;;
15633;SDS011;14654;48.898;8.308;2022-09-03T13:34:53;0.90;;;0.73;;
15633;SDS011;14654;48.898;8.308;2022-09-03T13:43:00;1.20;;;1.00;;
15633;SDS011;14654;48.898;8.308;2022-09-03T13:45:56;1.17;;;1.07;;
15633;SDS011;14654;48.898;8.308;2022-09-03T13:48:31;0.97;;;0.90;;
15633;SDS011;14654;48.898;8.308;2022-09-03T13:51:22;0.90;;;0.70;;
15633;SDS011;14654;48.898;8.308;2022-09-03T13:54:09;1.03;;;1.00;;
15633;SDS011;14654;48.898;8.308;2022-09-03T13:56:43;1.00;;;0.90;;
15633;SDS011;14654;48.898;8.308;2022-09-03T14:01:58;1.37;;;0.90;;
15633;SDS011;14654;48.898;8.308;2022-09-03T14:07:26;0.93;;;0.83;;
15633;SDS011;14654;48.898;8.308;2022-09-03T14:12:44;0.87;;;0.70;;
15633;SDS011;14654;48.898;8.308;2022-09-03T14:15:25;1.27;;;0.80;;
15633;SDS011;14654;48.898;8.308;2022-09-03T14:18:14;1.00;;;0.90;;
15633;SDS011;14654;48.898;8.308;2022-09-03T14:20:46;1.83;;;0.70;;
15633;SDS011;14654;48.898;8.308;2022-09-03T14:26:02;0.87;;;0.70;;
15633;SDS011;14654;48.898;8.308;2022-09-03T14:28:32;1.00;;;0.60;;
15633;SDS011;14654;48.898;8.308;2022-09-03T14:50:21;1.30;;;1.00;;
15633;SDS011;14654;48.898;8.308;2022-09-03T15:01:36;1.20;;;0.77;;
15633;SDS011;14654;48.898;8.308;2022-09-03T15:07:26;0.70;;;0.70;;
15633;SDS011;14654;48.898;8.308;2022-09-03T15:10:05;2.10;;;0.80;;
15633;SDS011;14654;48.898;8.308;2022-09-03T15:13:00;0.70;;;0.70;;
15633;SDS011;14654;48.898;8.308;2022-09-03T15:16:02;0.80;;;0.80;;
15633;SDS011;14654;48.898;8.308;2022-09-03T15:24:14;0.70;;;0.60;;
15633;SDS011;14654;48.898;8.308;2022-09-03T15:26:55;0.77;;;0.63;;
15633;SDS011;14654;48.898;8.308;2022-09-03T15:35:04;1.17;;;0.63;;
15633;SDS011;14654;48.898;8.308;2022-09-03T15:37:44;0.90;;;0.53;;
15633;SDS011;14654;48.898;8.308;2022-09-03T15:40:23;0.90;;;0.60;;
15633;SDS011;14654;48.898;8.308;2022-09-03T15:42:51;0.70;;;0.70;;
15633;SDS011;14654;48.898;8.308;2022-09-03T15:45:39;0.60;;;0.60;;
15633;SDS011;14654;48.898;8.308;2022-09-03T15:48:20;0.60;;;0.60;;
15633;SDS011;14654;48.898;8.308;2022-09-03T15:51:09;0.87;;;0.70;;
15633;SDS011;14654;48.898;8.308;2022-09-03T16:02:41;0.70;;;0.70;;
15633;SDS011;14654;48.898;8.308;2022-09-03T16:05:40;0.70;;;0.70;;
15633;SDS011;14654;48.898;8.308;2022-09-03T16:11:05;1.10;;;0.77;;
15633;SDS011;14654;48.898;8.308;2022-09-03T16:16:04;0.60;;;0.60;;
15633;SDS011;14654;48.898;8.308;2022-09-03T16:18:35;0.90;;;0.70;;
15633;SDS011;14654;48.898;8.308;2022-09-03T16:21:08;0.70;;;0.70;;
15633;SDS011;14654;48.898;8.308;2022-09-03T16:23:48;0.60;;;0.60;;
15633;SDS011;14654;48.898;8.308;2022-09-03T16:27:02;0.73;;;0.70;;
15633;SDS011;14654;48.898;8.308;2022-09-03T16:29:11;0.60;;;0.60;;
15633;SDS011;14654;48.898;8.308;2022-09-03T16:34:31;0.70;;;0.70;;
15633;SDS011;14654;48.898;8.308;2022-09-03T16:46:03;0.57;;;0.57;;
15633;SDS011;14654;48.898;8.308;2022-09-03T16:59:27;1.20;;;0.60;;
15633;SDS011;14654;48.898;8.308;2022-09-03T17:07:52;0.90;;;0.70;;
15633;SDS011;14654;48.898;8.308;2022-09-03T17:10:45;0.73;;;0.73;;
15633;SDS011;14654;48.898;8.308;2022-09-03T17:18:49;1.00;;;0.90;;
15633;SDS011;14654;48.898;8.308;2022-09-03T17:24:20;0.70;;;0.70;;
15633;SDS011;14654;48.898;8.308;2022-09-03T17:52:45;1.23;;;1.00;;
15633;SDS011;14654;48.898;8.308;2022-09-03T18:00:59;0.73;;;0.73;;
15633;SDS011;14654;48.898;8.308;2022-09-03T18:06:29;1.87;;;0.80;;
15633;SDS011;14654;48.898;8.308;2022-09-03T18:09:39;0.70;;;0.70;;
15633;SDS011;14654;48.898;8.308;2022-09-03T18:17:29;0.90;;;0.90;;
15633;SDS011;14654;48.898;8.308;2022-09-03T18:20:01;0.90;;;0.90;;
15633;SDS011;14654;48.898;8.308;2022-09-03T18:22:55;0.80;;;0.73;;
15633;SDS011;14654;48.898;8.308;2022-09-03T18:25:45;0.93;;;0.90;;
15633;SDS011;14654;48.898;8.308;2022-09-03T18:28:38;1.07;;;0.93;;
15633;SDS011;14654;48.898;8.308;2022-09-03T18:31:27;0.90;;;0.90;;
15633;SDS011;14654;48.898;8.308;2022-09-03T18:34:11;1.10;;;1.00;;
15633;SDS011;14654;48.898;8.308;2022-09-03T18:36:58;1.13;;;1.03;;
15633;SDS011;14654;48.898;8.308;2022-09-03T18:39:43;1.00;;;0.90;;
15633;SDS011;14654;48.898;8.308;2022-09-03T18:42:31;0.90;;;0.90;;
15633;SDS011;14654;48.898;8.308;2022-09-03T18:49:10;0.93;;;0.90;;
15633;SDS011;14654;48.898;8.308;2022-09-03T19:01:08;2.77;;;1.00;;
15633;SDS011;14654;48.898;8.308;2022-09-03T19:07:12;3.43;;;1.10;;
15633;SDS011;14654;48.898;8.308;2022-09-03T19:10:04;1.30;;;1.17;;
15633;SDS011;14654;48.898;8.308;2022-09-03T19:16:08;1.10;;;1.00;;
15633;SDS011;14654;48.898;8.308;2022-09-03T19:22:08;1.40;;;1.30;;
15633;SDS011;14654;48.898;8.308;2022-09-03T19:24:56;1.20;;;1.10;;
15633;SDS011;14654;48.898;8.308;2022-09-03T19:34:12;1.37;;;0.90;;
15633;SDS011;14654;48.898;8.308;2022-09-03T19:37:36;1.53;;;1.10;;
15633;SDS011;14654;48.898;8.308;2022-09-03T19:46:37;0.97;;;0.97;;
15633;SDS011;14654;48.898;8.308;2022-09-03T19:49:44;1.00;;;1.00;;
15633;SDS011;14654;48.898;8.308;2022-09-03T19:52:52;1.30;;;1.20;;
15633;SDS011;14654;48.898;8.308;2022-09-03T19:55:47;1.50;;;1.30;;
15633;SDS011;14654;48.898;8.308;2022-09-03T19:58:44;1.20;;;1.10;;
15633;SDS011;14654;48.898;8.308;2022-09-03T20:01:33;1.20;;;1.10;;
15633;SDS011;14654;48.898;8.308;2022-09-03T20:04:19;0.80;;;0.80;;
15633;SDS011;14654;48.898;8.308;2022-09-03T20:07:08;1.20;;;1.10;;
15633;SDS011;14654;48.898;8.308;2022-09-03T20:09:52;1.50;;;1.40;;
15633;SDS011;14654;48.898;8.308;2022-09-03T20:12:45;1.40;;;1.30;;
15633;SDS011;14654;48.898;8.308;2022-09-03T20:21:35;1.30;;;1.20;;
15633;SDS011;14654;48.898;8.308;2022-09-03T20:32:10;2.07;;;1.03;;
15633;SDS011;14654;48.898;8.308;2022-09-03T20:34:51;1.33;;;1.23;;
15633;SDS011;14654;48.898;8.308;2022-09-03T20:37:29;1.67;;;1.20;;
15633;SDS011;14654;48.898;8.308;2022-09-03T20:42:34;1.57;;;1.30;;
15633;SDS011;14654;48.898;8.308;2022-09-03T20:45:30;1.60;;;1.30;;
15633;SDS011;14654;48.898;8.308;2022-09-03T20:53:48;1.37;;;1.10;;
15633;SDS011;14654;48.898;8.308;2022-09-03T20:56:50;1.57;;;1.17;;
15633;SDS011;14654;48.898;8.308;2022-09-03T21:02:15;1.40;;;1.20;;
15633;SDS011;14654;48.898;8.308;2022-09-03T21:11:10;1.83;;;1.53;;
15633;SDS011;14654;48.898;8.308;2022-09-03T21:14:01;1.67;;;1.20;;
15633;SDS011;14654;48.898;8.308;2022-09-03T21:19:40;1.63;;;1.30;;
15633;SDS011;14654;48.898;8.308;2022-09-03T21:22:38;1.70;;;1.20;;
15633;SDS011;14654;48.898;8.308;2022-09-03T21:25:10;1.40;;;1.20;;
15633;SDS011;14654;48.898;8.308;2022-09-03T21:27:40;1.63;;;1.40;;
15633;SDS011;14654;48.898;8.308;2022-09-03T21:30:13;1.40;;;1.30;;
15633;SDS011;14654;48.898;8.308;2022-09-03T21:32:58;2.20;;;1.50;;
15633;SDS011;14654;48.898;8.308;2022-09-03T21:35:30;1.20;;;1.10;;